Time;durP1;ratioP1;P1;durP2;ratioP2;P2;SDS_P1;SDS_P2;PMS_P1;PMS_P2;Temp;Humidity;BMP_temperature;BMP_pressure;BME280_temperature;BME280_humidity;BME280_pressure;Samples;Min_cycle;Max_cycle;Signal;HPM_P1;HPM_P2
2022/08/09 00:00:09;;;;;;;3.13;2.83;;;18.70;99.90;;;-141.84;43.57;21161.53;5014236;28;20253;-63
2022/08/09 00:02:40;;;;;;;2.90;2.55;;;18.70;99.90;;;-141.84;43.71;21108.66;5014300;28;20210;-65
2022/08/09 00:05:18;;;;;;;4.45;2.88;;;18.70;99.90;;;-141.84;44.09;21090.38;5014672;28;20606;-61
2022/08/09 00:08:09;;;;;;;3.75;2.72;;;18.60;99.90;;;-141.84;44.01;21131.03;5034029;28;20684;-62
2022/08/09 00:10:39;;;;;;;2.88;2.65;;;18.60;99.90;;;-141.84;44.24;21072.06;5034057;28;20233;-63
2022/08/09 00:13:10;;;;;;;3.45;2.72;;;18.50;99.90;;;-141.84;44.12;21106.63;5033907;28;20246;-62
2022/08/09 00:15:46;;;;;;;2.85;2.63;;;18.50;99.90;;;-141.84;44.09;21100.53;5033839;28;20260;-61
2022/08/09 00:18:32;;;;;;;5.90;2.90;;;18.50;99.90;;;-141.84;44.18;21100.53;5033579;28;20224;-63
2022/08/09 00:21:04;;;;;;;2.95;2.75;;;18.40;99.90;;;-141.84;44.07;21082.25;5033925;28;20236;-62
2022/08/09 00:23:37;;;;;;;3.40;3.10;;;18.40;99.90;;;-141.84;44.50;21118.84;5033976;28;20202;-62
2022/08/09 00:26:27;;;;;;;4.25;2.97;;;18.40;99.90;;;-141.84;45.03;21061.91;5034030;28;20606;-61
2022/08/09 00:29:02;;;;;;;3.55;2.70;;;18.30;99.90;;;-141.84;45.08;21043.59;5014192;28;20795;-61
2022/08/09 00:31:39;;;;;;;2.95;2.53;;;18.20;99.90;;;-141.84;45.32;21025.31;5013950;28;20748;-61
2022/08/09 00:34:27;;;;;;;3.28;2.75;;;18.20;99.90;;;-141.84;45.63;20974.50;5013464;28;20251;-62
2022/08/09 00:37:00;;;;;;;4.43;2.70;;;18.10;99.90;;;-141.84;45.63;20992.78;5011113;28;20223;-62
2022/08/09 00:39:29;;;;;;;2.80;2.60;;;18.00;99.90;;;-141.84;45.79;21023.28;5013347;28;20718;-63
2022/08/09 00:42:17;;;;;;;3.78;3.03;;;18.00;99.90;;;-141.84;45.71;20990.75;5013649;28;20230;-62
2022/08/09 00:45:08;;;;;;;3.28;2.80;;;18.00;99.90;;;-141.84;45.53;21025.31;5013396;28;20241;-62
2022/08/09 00:47:43;;;;;;;3.08;2.80;;;17.90;99.90;;;-141.84;45.51;20980.59;5013628;28;20183;-62
2022/08/09 00:50:12;;;;;;;3.25;2.60;;;17.90;99.90;;;-141.84;45.75;21031.41;5013594;28;20211;-62
2022/08/09 00:52:42;;;;;;;3.78;2.80;;;17.90;99.90;;;-141.84;46.41;20944.00;5013188;28;20306;-63
2022/08/09 00:55:10;;;;;;;4.60;3.40;;;17.90;99.90;;;-141.84;46.15;20990.75;5012626;28;20309;-62
2022/08/09 00:57:59;;;;;;;4.85;3.00;;;17.90;99.90;;;-141.84;46.12;20972.47;5013310;28;20249;-62
2022/08/09 01:00:29;;;;;;;3.13;2.83;;;17.80;99.90;;;-141.84;46.30;20944.00;5001555;28;20301;-62
2022/08/09 01:03:14;;;;;;;4.25;3.17;;;17.80;99.90;;;-141.84;46.43;20954.16;4998148;28;20261;-61
2022/08/09 01:05:52;;;;;;;3.63;3.20;;;17.70;99.90;;;-141.84;46.20;20976.53;5012745;28;20718;-63
2022/08/09 01:08:42;;;;;;;2.85;2.63;;;17.70;99.90;;;-141.84;46.75;20964.31;5013676;28;20187;-62
2022/08/09 01:11:36;;;;;;;4.22;3.33;;;17.70;99.90;;;-141.84;46.59;20935.88;5013085;28;20261;-62
2022/08/09 01:14:15;;;;;;;3.53;3.08;;;17.60;99.90;;;-141.84;46.76;20960.25;5032964;28;20242;-62
2022/08/09 01:16:55;;;;;;;3.08;2.85;;;17.60;99.90;;;-141.84;46.91;20903.34;5032634;28;20724;-62
2022/08/09 01:19:43;;;;;;;3.97;3.13;;;17.50;99.90;;;-141.84;47.10;20885.03;5032285;28;20221;-62
2022/08/09 01:23:15;;;;;;;3.05;2.75;;;17.50;99.90;;;-141.84;47.12;20931.78;5032569;28;20276;-63
2022/08/09 01:26:30;;;;;;;4.10;3.42;;;17.40;99.90;;;-141.84;47.30;20883.00;5032212;28;20233;-62
2022/08/09 01:29:01;;;;;;;4.32;3.03;;;17.40;99.90;;;-141.84;47.56;20891.13;5032482;28;20771;-62
2022/08/09 01:31:33;;;;;;;3.08;2.75;;;17.30;99.90;;;-141.84;48.07;20862.69;5032612;28;20222;-62
2022/08/09 01:34:25;;;;;;;3.30;3.00;;;17.30;99.90;;;-141.84;48.17;20872.84;5029742;28;20233;-62
2022/08/09 01:36:57;;;;;;;3.40;3.10;;;17.20;99.90;;;-141.84;47.93;20870.81;5032306;28;20226;-62
2022/08/09 01:39:29;;;;;;;3.30;3.00;;;17.20;99.90;;;-141.84;47.83;20846.41;5032416;28;20225;-62
2022/08/09 01:42:06;;;;;;;3.83;3.20;;;17.10;99.90;;;-141.84;48.19;20842.34;5032479;28;20314;-62
2022/08/09 01:44:41;;;;;;;3.72;3.20;;;17.10;99.90;;;-141.84;48.17;20854.53;5032703;28;20206;-62
2022/08/09 01:47:12;;;;;;;4.00;3.22;;;17.10;99.90;;;-141.84;48.75;20842.34;5032352;28;20245;-62
2022/08/09 01:49:48;;;;;;;5.03;3.33;;;17.00;99.90;;;-141.84;48.40;20842.34;5031684;28;20229;-62
2022/08/09 01:52:24;;;;;;;3.22;2.90;;;17.00;99.90;;;-141.84;48.36;20850.47;5032234;28;20225;-63
2022/08/09 01:54:57;;;;;;;4.13;3.17;;;17.00;99.90;;;-141.84;48.42;20862.69;5031927;28;20230;-62
2022/08/09 01:57:36;;;;;;;3.95;3.42;;;17.00;99.90;;;-141.84;48.38;20846.41;5031825;28;20663;-63
2022/08/09 02:00:14;;;;;;;5.00;3.20;;;17.00;99.90;;;-141.84;48.63;20809.81;5031738;28;20786;-62
2022/08/09 02:03:06;;;;;;;3.40;3.10;;;16.90;99.90;;;-141.84;48.93;20830.16;5031876;28;20225;-62
2022/08/09 02:05:39;;;;;;;3.58;3.20;;;16.90;99.90;;;-141.84;48.77;20817.94;5032034;28;20185;-61
2022/08/09 02:08:31;;;;;;;3.47;3.15;;;16.90;99.90;;;-141.84;48.38;20850.47;5012278;28;20215;-62
2022/08/09 02:11:21;;;;;;;5.68;3.45;;;16.90;99.90;;;-141.84;48.78;20799.66;5031980;28;20213;-62
2022/08/09 02:13:50;;;;;;;4.07;3.22;;;16.90;99.90;;;-141.84;48.86;20822.03;5030834;28;20221;-62
2022/08/09 02:16:40;;;;;;;3.35;3.05;;;16.80;99.90;;;-141.84;48.85;20815.91;5030140;28;20334;-62
2022/08/09 02:19:28;;;;;;;4.10;3.50;;;16.80;99.90;;;-141.84;48.43;20830.16;5021191;28;20218;-61
2022/08/09 02:22:17;;;;;;;4.25;3.85;;;16.90;99.90;;;-141.84;48.87;20822.03;5030658;28;20240;-61
2022/08/09 02:25:07;;;;;;;4.55;3.60;;;16.90;99.90;;;-141.84;48.91;20832.19;5031479;28;20226;-62
2022/08/09 02:27:39;;;;;;;5.75;3.80;;;16.80;99.90;;;-141.84;49.21;20801.69;5031346;28;20313;-62
2022/08/09 02:30:37;;;;;;;4.55;3.83;;;16.80;99.90;;;-141.84;49.87;20805.75;5031011;28;20230;-62
2022/08/09 02:33:13;;;;;;;3.95;3.55;;;16.70;99.90;;;-141.84;49.66;20826.09;5031249;28;20747;-61
2022/08/09 02:35:47;;;;;;;4.07;3.60;;;16.70;99.90;;;-141.84;49.98;20817.94;5031052;28;20273;-62
2022/08/09 02:38:42;;;;;;;3.97;3.57;;;16.70;99.90;;;-141.84;50.54;20700.03;5031875;28;20189;-62
2022/08/09 02:41:27;;;;;;;3.88;3.47;;;16.60;99.90;;;-141.84;51.42;20750.88;5011526;28;20206;-62
2022/08/09 02:44:03;;;;;;;5.43;4.40;;;16.50;99.90;;;-141.84;50.34;20765.09;5029845;28;20650;-63
2022/08/09 02:46:52;;;;;;;4.13;3.72;;;16.40;99.90;;;-141.84;50.53;20738.66;5030667;28;20317;-62
2022/08/09 02:49:20;;;;;;;5.57;3.80;;;16.50;99.90;;;-141.84;50.58;20785.44;5030697;28;20279;-62
2022/08/09 02:52:09;;;;;;;4.72;3.83;;;16.40;99.90;;;-141.84;50.76;20728.50;5015081;28;20249;-63
2022/08/09 02:54:39;;;;;;;6.83;3.97;;;16.30;99.90;;;-141.84;50.99;20695.97;5029582;28;20230;-62
2022/08/09 02:57:26;;;;;;;4.75;4.00;;;16.30;99.90;;;-141.84;51.38;20687.84;5029749;28;20234;-63
2022/08/09 02:59:57;;;;;;;4.73;4.13;;;16.20;99.90;;;-141.84;51.40;20706.16;5029667;28;20193;-62
2022/08/09 03:02:51;;;;;;;4.63;4.22;;;16.20;99.90;;;-141.84;51.80;20702.09;5029338;28;20201;-64
2022/08/09 03:05:29;;;;;;;5.50;4.35;;;16.10;99.90;;;-141.84;50.78;20730.53;5030166;28;20210;-63
2022/08/09 03:08:05;;;;;;;5.13;4.35;;;16.20;99.90;;;-141.84;50.71;20736.63;5029412;28;20225;-62
2022/08/09 03:10:36;;;;;;;4.73;4.30;;;16.20;99.90;;;-141.84;50.46;20754.94;5029620;28;20305;-63
2022/08/09 03:13:06;;;;;;;6.33;4.57;;;16.30;99.90;;;-141.84;50.42;20761.03;5029500;28;20239;-62
2022/08/09 03:15:37;;;;;;;5.17;4.67;;;16.30;99.90;;;-141.84;50.13;20830.16;5029549;28;20321;-63
2022/08/09 03:18:27;;;;;;;4.73;4.33;;;16.40;99.90;;;-141.84;51.00;20722.41;5028979;28;20309;-61
2022/08/09 03:21:01;;;;;;;5.67;4.43;;;16.30;99.90;;;-141.84;50.79;20759.00;5017336;28;20209;-61
2022/08/09 03:23:30;;;;;;;5.23;4.77;;;16.30;99.90;;;-141.84;49.74;20781.38;5010489;28;20249;-62
2022/08/09 03:25:59;;;;;;;5.38;4.80;;;16.40;99.90;;;-141.84;50.43;20767.13;5014530;28;20309;-61
2022/08/09 03:28:34;;;;;;;6.97;4.90;;;16.40;99.90;;;-141.84;51.15;20730.53;5029389;28;20230;-62
2022/08/09 03:31:04;;;;;;;4.87;4.43;;;16.40;99.90;;;-141.84;51.95;20671.59;5029275;28;20308;-61
2022/08/09 03:33:40;;;;;;;5.33;4.50;;;16.10;99.90;;;-141.84;52.13;20679.72;5029043;28;20708;-62
2022/08/09 03:36:23;;;;;;;7.83;4.87;;;16.10;99.90;;;-141.84;52.11;20637.03;5029539;28;20321;-73
2022/08/09 03:38:56;;;;;;;5.70;4.70;;;16.00;99.90;;;-141.84;52.32;20641.09;5029600;28;20851;-74
2022/08/09 03:41:25;;;;;;;6.50;4.03;;;16.00;99.90;;;-141.84;52.85;20614.66;5029436;28;20693;-72
2022/08/09 03:44:13;;;;;;;4.83;4.33;;;15.90;99.90;;;-141.84;53.07;20659.38;5029543;28;20222;-75
2022/08/09 03:46:42;;;;;;;4.47;4.03;;;15.90;99.90;;;-141.84;52.58;20691.91;5028992;28;20234;-73
2022/08/09 03:49:13;;;;;;;6.60;4.30;;;15.90;99.90;;;-141.84;53.57;20647.19;5029037;28;20275;-73
2022/08/09 03:51:50;;;;;;;4.90;4.50;;;15.80;99.90;;;-141.84;52.76;20645.16;5028877;28;20264;-74
2022/08/09 03:54:30;;;;;;;5.90;4.35;;;15.80;99.90;;;-141.84;52.78;20647.19;5029048;28;20735;-73
2022/08/09 03:57:03;;;;;;;4.57;3.90;;;15.80;99.90;;;-141.84;52.58;20661.44;5029264;28;20233;-72
2022/08/09 03:59:49;;;;;;;5.70;4.22;;;15.80;99.90;;;-141.84;52.61;20643.13;5029185;28;20490;-72
2022/08/09 04:02:25;;;;;;;4.97;4.10;;;15.80;99.90;;;-141.84;53.15;20657.34;5029409;28;20489;-74
2022/08/09 04:05:01;;;;;;;4.68;4.15;;;15.80;99.90;;;-141.84;52.73;20673.63;5028938;28;20320;-73
2022/08/09 04:07:34;;;;;;;5.07;4.35;;;15.80;99.90;;;-141.84;52.18;20683.78;5029026;28;20796;-74
2022/08/09 04:10:22;;;;;;;6.33;4.70;;;15.90;99.90;;;-141.84;52.02;20714.28;5029098;28;20218;-73
2022/08/09 04:12:59;;;;;;;4.70;3.90;;;16.00;99.90;;;-141.84;51.93;20718.34;5029130;28;20229;-73
2022/08/09 04:15:31;;;;;;;4.97;4.43;;;16.00;99.90;;;-141.84;52.14;20712.25;5029212;28;20244;-72
2022/08/09 04:18:20;;;;;;;4.97;4.28;;;16.00;99.90;;;-141.84;52.32;20722.41;5028946;28;20214;-73
2022/08/09 04:20:51;;;;;;;6.43;4.53;;;16.10;99.90;;;-141.84;52.72;20702.09;5018623;28;20207;-74
2022/08/09 04:23:19;;;;;;;4.90;4.40;;;16.10;99.90;;;-141.84;53.16;20675.66;5023654;28;20229;-73
2022/08/09 04:25:54;;;;;;;4.70;4.30;;;16.00;99.90;;;-141.84;53.65;20675.66;5028759;28;20230;-73
2022/08/09 04:28:25;;;;;;;4.60;4.00;;;16.00;99.90;;;-141.84;54.30;20669.56;5028745;28;20226;-74
2022/08/09 04:31:05;;;;;;;5.93;4.90;;;16.00;99.90;;;-141.84;54.34;20671.59;5031580;28;20233;-73
2022/08/09 04:33:39;;;;;;;5.23;4.17;;;16.10;99.90;;;-141.84;55.17;20635.00;5032045;28;20712;-73
2022/08/09 04:36:23;;;;;;;7.15;4.78;;;16.00;99.90;;;-141.84;55.21;20645.16;5032645;28;20222;-74
2022/08/09 04:38:52;;;;;;;5.57;4.95;;;16.00;99.90;;;-141.84;55.37;20673.63;5032762;28;20282;-73
2022/08/09 04:41:21;;;;;;;7.43;5.10;;;16.10;99.90;;;-141.84;54.69;20663.47;5033106;28;20237;-74
2022/08/09 04:43:52;;;;;;;7.00;4.90;;;16.10;99.90;;;-141.84;55.59;20639.06;5033136;28;20228;-73
2022/08/09 04:46:37;;;;;;;6.18;5.50;;;16.20;99.90;;;-141.84;55.62;20732.56;5013253;28;20741;-75
2022/08/09 04:49:31;;;;;;;6.95;5.30;;;16.20;99.90;;;-141.84;55.34;20724.44;5013250;28;20234;-73
2022/08/09 04:52:22;;;;;;;7.07;5.53;;;16.40;99.90;;;-141.84;55.79;20712.25;5013087;28;20237;-74
2022/08/09 04:54:55;;;;;;;7.32;5.97;;;16.40;99.90;;;-141.84;55.87;20714.28;5013146;28;20633;-73
2022/08/09 04:57:24;;;;;;;6.40;5.80;;;16.40;99.90;;;-141.84;56.31;20722.41;5012775;28;20247;-74
2022/08/09 04:59:54;;;;;;;6.70;6.03;;;16.40;99.90;;;-141.84;56.13;20759.00;5012649;28;20207;-74
2022/08/09 05:02:23;;;;;;;7.45;6.13;;;16.50;99.90;;;-141.84;54.87;20807.78;5013409;28;20199;-74
2022/08/09 05:04:54;;;;;;;6.20;5.40;;;16.70;99.90;;;-141.84;53.64;20885.03;5012690;28;20231;-73
2022/08/09 05:07:25;;;;;;;6.00;5.40;;;17.00;99.90;;;-141.84;50.97;21039.53;5023475;28;20222;-76
2022/08/09 05:09:59;;;;;;;5.10;4.55;;;17.50;99.90;;;-141.84;47.69;21309.94;5032842;28;20230;-74
2022/08/09 05:12:30;;;;;;;5.50;5.00;;;18.30;99.90;;;-141.84;46.31;21387.19;5032997;28;20221;-75
2022/08/09 05:15:02;;;;;;;5.72;5.18;;;18.90;99.90;;;-141.84;44.93;21476.66;5032288;28;20226;-74
2022/08/09 05:17:39;;;;;;;6.78;5.22;;;19.60;99.90;;;-141.84;44.18;21547.81;5029934;28;20255;-74
2022/08/09 05:20:28;;;;;;;5.25;4.75;;;19.70;99.90;;;-141.84;44.45;21488.88;5024786;28;20240;-74
2022/08/09 05:23:00;;;;;;;5.88;4.95;;;19.70;99.90;;;-141.84;45.71;21362.81;5012533;28;20565;-73
2022/08/09 05:25:48;;;;;;;6.57;5.88;;;19.40;99.90;;;-141.84;46.27;21281.47;5012396;28;20238;-73
2022/08/09 05:28:19;;;;;;;8.50;5.18;;;19.50;99.90;;;-141.84;47.17;21216.41;5012613;28;20226;-73
2022/08/09 05:30:48;;;;;;;5.95;4.60;;;19.40;99.90;;;-141.84;48.03;21171.69;5012697;28;20310;-69
2022/08/09 05:33:18;;;;;;;6.07;5.28;;;19.20;99.90;;;-141.84;48.05;21124.94;5012448;28;20249;-73
2022/08/09 05:35:53;;;;;;;6.00;5.38;;;19.00;99.90;;;-141.84;48.94;21074.09;5012389;28;20182;-72
2022/08/09 05:38:25;;;;;;;6.50;5.80;;;18.70;99.90;;;-141.84;48.64;21102.56;5013037;28;20190;-73
2022/08/09 05:40:55;;;;;;;8.10;5.30;;;18.60;99.90;;;-141.84;48.67;21059.88;5012505;28;20230;-72
2022/08/09 05:43:23;;;;;;;6.03;5.20;;;18.50;99.90;;;-141.84;48.48;21110.69;5012212;28;20241;-73
2022/08/09 05:45:59;;;;;;;5.68;5.10;;;18.60;99.90;;;-141.84;47.71;21187.97;5012181;28;20304;-75
2022/08/09 05:48:28;;;;;;;5.72;5.22;;;18.70;99.90;;;-141.84;48.03;21196.09;5011981;28;20306;-72
2022/08/09 05:51:01;;;;;;;6.32;5.47;;;18.80;99.90;;;-141.84;47.57;21187.97;5020948;28;20281;-72
2022/08/09 05:53:51;;;;;;;6.45;5.85;;;18.80;99.90;;;-141.84;47.48;21167.63;5011996;28;20194;-72
2022/08/09 05:56:26;;;;;;;5.43;4.88;;;18.80;99.90;;;-141.84;47.77;21161.53;5012618;28;20256;-73
2022/08/09 05:58:57;;;;;;;5.15;4.55;;;18.80;99.90;;;-141.84;47.70;21196.09;5011882;28;20331;-72
2022/08/09 06:01:28;;;;;;;5.10;4.60;;;18.80;99.90;;;-141.84;47.05;21226.59;5011922;28;20230;-72
2022/08/09 06:04:02;;;;;;;5.68;5.10;;;19.00;99.90;;;-141.84;46.97;21261.16;5011538;28;20230;-64
2022/08/09 06:06:33;;;;;;;8.75;6.05;;;19.00;99.90;;;-141.84;46.58;21279.44;5011627;28;20662;-63
2022/08/09 06:09:04;;;;;;;6.63;5.90;;;19.20;99.90;;;-141.84;45.69;21297.75;5010462;28;20223;-61
2022/08/09 06:11:50;;;;;;;7.10;5.68;;;19.20;99.90;;;-141.84;45.59;21322.13;5011401;28;20212;-62
2022/08/09 06:14:25;;;;;;;5.97;5.38;;;19.20;99.90;;;-141.84;45.33;21328.25;5012526;28;20206;-62
2022/08/09 06:16:55;;;;;;;7.82;5.50;;;19.30;99.90;;;-141.84;45.00;21403.47;5011547;28;20254;-63
2022/08/09 06:19:24;;;;;;;6.40;5.07;;;19.60;99.90;;;-141.84;44.99;21452.25;5023719;28;20249;-62
2022/08/09 06:21:55;;;;;;;6.28;5.68;;;19.90;99.90;;;-141.84;44.53;21433.97;5002674;28;20228;-62
2022/08/09 06:24:27;;;;;;;6.57;5.35;;;19.90;99.90;;;-141.84;45.07;21395.34;5011195;28;20749;-62
2022/08/09 06:26:56;;;;;;;9.07;5.72;;;20.00;99.90;;;-141.84;44.19;21472.59;5011380;28;20717;-62
2022/08/09 06:29:26;;;;;;;8.05;5.95;;;20.10;99.90;;;-141.84;43.87;21494.97;5011922;28;20606;-62
2022/08/09 06:31:55;;;;;;;8.50;6.30;;;20.30;99.90;;;-141.84;43.18;21562.06;5011313;28;20222;-62
2022/08/09 06:34:36;;;;;;;10.02;6.25;;;20.40;99.90;;;-141.84;43.30;21566.13;5011029;28;20334;-61
2022/08/09 06:37:05;;;;;;;9.07;6.22;;;20.50;99.90;;;-141.84;43.62;21533.59;5011222;28;20305;-62
2022/08/09 06:39:38;;;;;;;9.13;5.82;;;20.40;99.90;;;-141.84;43.50;21480.72;5010888;28;20226;-62
2022/08/09 06:42:26;;;;;;;6.43;5.93;;;20.40;99.90;;;-141.84;42.57;21533.59;5011132;28;20710;-62
2022/08/09 06:44:58;;;;;;;9.25;6.65;;;20.50;99.90;;;-141.84;42.73;21484.78;5011238;28;20216;-62
2022/08/09 06:47:27;;;;;;;8.13;6.40;;;20.50;99.90;;;-141.84;43.81;21478.69;5011610;28;20222;-62
2022/08/09 06:50:10;;;;;;;6.63;5.40;;;20.50;99.90;;;-141.84;44.02;21476.66;5015834;28;20225;-62
2022/08/09 06:52:46;;;;;;;7.70;5.90;;;20.50;99.90;;;-141.84;43.52;21444.13;5030476;28;20291;-61
2022/08/09 06:55:19;;;;;;;6.35;5.70;;;20.40;99.90;;;-141.84;43.71;21452.25;5030658;28;20229;-62
2022/08/09 06:57:51;;;;;;;7.03;5.57;;;20.40;99.90;;;-141.84;43.11;21497.00;5030930;28;20304;-62
2022/08/09 07:00:31;;;;;;;5.68;4.82;;;20.50;99.90;;;-141.84;43.26;21521.41;5030810;28;20305;-62
2022/08/09 07:03:19;;;;;;;7.10;5.82;;;20.60;99.90;;;-141.84;43.56;21568.16;5030619;28;20235;-61
2022/08/09 07:05:56;;;;;;;7.13;4.90;;;20.80;99.90;;;-141.84;43.95;21619.00;5030573;28;20224;-61
2022/08/09 07:08:34;;;;;;;6.13;4.70;;;20.80;99.90;;;-141.84;44.08;21533.59;5031404;28;20186;-62
2022/08/09 07:11:06;;;;;;;5.95;5.32;;;21.00;99.90;;;-141.84;44.40;21543.75;5010843;28;20211;-62
2022/08/09 07:13:35;;;;;;;7.15;4.60;;;20.90;99.90;;;-141.84;44.87;21517.31;5026580;28;20713;-62
2022/08/09 07:16:23;;;;;;;5.43;4.90;;;20.90;99.90;;;-141.84;44.79;21543.75;5030346;28;20685;-62
2022/08/09 07:19:11;;;;;;;7.15;5.45;;;20.90;99.90;;;-141.84;44.35;21531.56;5030277;28;20240;-62
2022/08/09 07:21:45;;;;;;;5.28;4.65;;;20.90;99.90;;;-141.84;44.68;21551.91;5012041;28;20229;-63
2022/08/09 07:24:23;;;;;;;9.32;5.32;;;20.80;99.90;;;-141.84;44.42;21551.91;5010904;28;20233;-62
2022/08/09 07:27:11;;;;;;;6.32;5.00;;;20.80;99.90;;;-141.84;44.54;21517.31;5010248;28;20237;-61
2022/08/09 07:30:00;;;;;;;4.80;4.38;;;20.80;99.90;;;-141.84;45.07;21560.03;5010698;28;20229;-61
2022/08/09 07:32:30;;;;;;;5.30;4.80;;;20.80;99.90;;;-141.84;45.29;21576.28;5011138;28;20199;-61
2022/08/09 07:35:02;;;;;;;8.95;5.25;;;20.90;99.90;;;-141.84;44.45;21588.50;5009916;28;20246;-62
2022/08/09 07:37:39;;;;;;;6.95;5.60;;;21.00;99.90;;;-141.84;43.94;21602.72;5010654;28;20383;-62
2022/08/09 07:40:14;;;;;;;6.25;5.15;;;21.10;99.90;;;-141.84;44.44;21523.44;5010307;28;20226;-63
2022/08/09 07:42:57;;;;;;;9.30;5.50;;;21.00;99.90;;;-141.84;44.05;21566.13;5010802;28;20260;-62
2022/08/09 07:45:27;;;;;;;6.95;5.15;;;21.00;99.90;;;-141.84;44.04;21623.06;5010491;28;20616;-60
2022/08/09 07:48:09;;;;;;;6.15;5.40;;;21.10;99.90;;;-141.84;43.12;21619.00;5010514;28;20256;-62
2022/08/09 07:50:59;;;;;;;5.90;4.97;;;21.10;99.90;;;-141.84;43.76;21612.88;5021874;28;20208;-61
2022/08/09 07:53:50;;;;;;;5.30;4.80;;;21.20;99.90;;;-141.84;43.31;21684.06;5030364;28;20190;-61
2022/08/09 07:56:37;;;;;;;6.65;4.63;;;21.20;99.90;;;-141.84;43.23;21675.94;5030906;28;20274;-62
2022/08/09 07:59:19;;;;;;;6.38;4.80;;;21.30;99.90;;;-141.84;43.33;21661.69;5030428;28;20244;-61
2022/08/09 08:02:01;;;;;;;4.80;4.30;;;21.40;99.90;;;-141.84;43.19;21665.75;5030092;28;20721;-62
2022/08/09 08:04:29;;;;;;;7.47;5.10;;;21.40;99.90;;;-141.84;43.51;21659.66;5030372;28;20226;-61
2022/08/09 08:07:01;;;;;;;7.07;4.97;;;21.50;99.90;;;-141.84;43.09;21680.00;5033497;28;20225;-62
2022/08/09 08:09:50;;;;;;;5.57;4.75;;;21.50;99.90;;;-141.84;43.46;21677.97;5034058;28;20228;-62
2022/08/09 08:12:35;;;;;;;5.88;4.20;;;21.50;99.90;;;-141.84;43.28;21708.47;5034030;28;20229;-62
2022/08/09 08:15:07;;;;;;;6.85;5.45;;;21.60;99.90;;;-141.84;42.71;21698.28;5034636;28;20239;-63
2022/08/09 08:17:37;;;;;;;5.53;4.97;;;21.70;99.90;;;-141.84;42.20;21761.31;5034610;28;20236;-61
2022/08/09 08:20:24;;;;;;;6.70;4.40;;;21.80;99.90;;;-141.84;41.82;21757.25;5013844;28;20234;-63
2022/08/09 08:22:59;;;;;;;4.80;3.75;;;21.90;99.90;;;-141.84;42.25;21775.56;5013862;28;20226;-62
2022/08/09 08:25:35;;;;;;;6.63;4.40;;;22.10;99.90;;;-141.84;42.26;21838.59;5014145;28;20264;-61
2022/08/09 08:28:14;;;;;;;5.32;4.40;;;22.20;99.90;;;-141.84;41.05;21834.53;5013668;28;20289;-62
2022/08/09 08:30:47;;;;;;;5.90;4.60;;;22.20;99.90;;;-141.84;41.51;21832.50;5013822;28;20226;-62
2022/08/09 08:33:17;;;;;;;5.00;3.85;;;22.30;99.90;;;-141.84;41.48;21846.72;5013932;28;20226;-62
2022/08/09 08:35:52;;;;;;;4.65;4.10;;;22.40;99.90;;;-141.84;41.14;21887.41;5013909;28;20241;-61
2022/08/09 08:38:28;;;;;;;5.18;4.00;;;22.50;99.90;;;-141.84;41.05;21901.63;5014771;28;20260;-62
2022/08/09 08:40:58;;;;;;;4.28;3.80;;;22.60;99.90;;;-141.84;41.70;21899.59;5013736;28;20286;-62
2022/08/09 08:43:26;;;;;;;5.15;4.10;;;22.60;99.90;;;-141.84;41.24;21950.44;5013535;28;20355;-61
2022/08/09 08:46:06;;;;;;;4.25;3.88;;;22.60;99.90;;;-141.84;41.22;21938.22;5013502;28;20249;-63
2022/08/09 08:48:54;;;;;;;4.78;4.20;;;22.70;99.90;;;-141.84;41.36;21944.34;5013697;28;20227;-63
2022/08/09 08:51:26;;;;;;;9.75;4.30;;;22.70;99.90;;;-141.84;40.92;21952.47;5029696;28;20226;-60
2022/08/09 08:54:10;;;;;;;5.05;4.28;;;22.80;99.90;;;-141.84;40.74;21950.44;5033950;28;20232;-62
2022/08/09 08:56:48;;;;;;;6.10;4.35;;;22.90;99.90;;;-141.84;40.77;22013.47;5033659;28;20182;-62
2022/08/09 08:59:16;;;;;;;10.10;4.30;;;22.90;99.90;;;-141.84;40.45;22001.28;5033969;28;20665;-62
2022/08/09 09:01:50;;;;;;;7.13;4.55;;;23.00;99.90;;;-141.84;40.35;22041.94;5033942;28;20226;-62
2022/08/09 09:04:29;;;;;;;4.75;4.07;;;23.10;99.90;;;-141.84;40.09;22019.56;5033095;28;20218;-62
2022/08/09 09:07:10;;;;;;;5.47;3.88;;;23.20;99.90;;;-141.84;39.67;22056.19;5033810;28;20275;-62
2022/08/09 09:09:45;;;;;;;7.05;4.40;;;23.20;99.90;;;-141.84;39.54;22100.91;5033403;28;20352;-62
2022/08/09 09:12:32;;;;;;;5.50;4.10;;;23.30;99.90;;;-141.84;39.50;22062.28;5032697;28;20785;-62
2022/08/09 09:15:04;;;;;;;5.60;3.88;;;23.30;99.90;;;-141.84;39.78;22066.34;5033250;28;20233;-61
2022/08/09 09:17:36;;;;;;;5.68;3.95;;;23.40;99.90;;;-141.84;39.59;22131.41;5033345;28;20183;-62
2022/08/09 09:20:20;;;;;;;6.65;4.15;;;23.40;99.90;;;-141.84;39.82;22155.81;5019224;28;20244;-62
2022/08/09 09:22:54;;;;;;;7.00;3.95;;;23.60;99.90;;;-141.84;39.71;22135.47;5032482;28;20724;-63
2022/08/09 09:25:38;;;;;;;6.13;4.63;;;23.70;99.90;;;-141.84;38.91;22212.75;5032519;28;20308;-63
2022/08/09 09:28:34;;;;;;;7.43;3.90;;;23.80;99.90;;;-141.84;39.08;22176.16;5032284;28;20240;-62
2022/08/09 09:31:23;;;;;;;5.45;3.88;;;23.80;99.90;;;-141.84;39.00;22204.63;5032206;28;20836;-63
2022/08/09 09:34:14;;;;;;;4.32;3.90;;;23.90;99.90;;;-141.84;38.58;22188.34;5032040;28;20237;-62
2022/08/09 09:36:46;;;;;;;4.10;3.72;;;24.00;99.90;;;-141.84;38.32;22235.13;5032279;28;20274;-63
2022/08/09 09:39:23;;;;;;;4.75;4.00;;;24.10;99.90;;;-141.84;38.00;22212.75;5032257;28;20259;-63
2022/08/09 09:42:24;;;;;;;7.10;3.75;;;24.10;99.90;;;-141.84;37.81;22292.06;5032130;28;20218;-62
2022/08/09 09:44:58;;;;;;;4.28;3.90;;;24.10;99.90;;;-141.84;37.23;22261.56;5032316;28;20220;-62
2022/08/09 09:47:28;;;;;;;5.60;3.30;;;24.10;99.90;;;-141.84;37.54;22261.56;5032613;28;20217;-61
2022/08/09 09:50:02;;;;;;;9.25;3.78;;;24.10;99.90;;;-141.84;36.41;22312.41;5031757;28;20317;-62
2022/08/09 09:52:51;;;;;;;4.25;3.22;;;24.20;99.90;;;-141.84;36.76;22322.56;5032067;28;20230;-63
2022/08/09 09:55:22;;;;;;;3.85;3.30;;;24.20;99.90;;;-141.84;36.67;22273.78;5031877;28;20235;-62
2022/08/09 09:58:03;;;;;;;5.47;3.60;;;24.20;99.90;;;-141.84;36.48;22302.25;5031747;28;20237;-61
2022/08/09 10:00:48;;;;;;;3.97;3.60;;;24.30;99.90;;;-141.84;36.55;22316.47;5031586;28;20230;-62
2022/08/09 10:03:44;;;;;;;6.53;3.50;;;24.30;99.90;;;-141.84;36.04;22285.97;5031440;28;20232;-65
2022/08/09 10:06:30;;;;;;;5.13;3.58;;;24.40;99.90;;;-141.84;35.80;22302.25;5031521;28;20647;-62
2022/08/09 10:09:03;;;;;;;5.53;3.30;;;24.40;99.90;;;-141.84;36.15;22361.22;5031416;28;20594;-63
2022/08/09 10:11:57;;;;;;;4.35;3.65;;;24.40;99.90;;;-141.84;36.11;22320.53;5031755;28;20190;-61
2022/08/09 10:14:48;;;;;;;5.47;3.22;;;24.40;99.90;;;-141.84;36.19;22342.91;5031409;28;20550;-64
2022/08/09 10:17:22;;;;;;;5.07;3.65;;;24.40;99.90;;;-141.84;36.10;22346.97;5032077;28;20190;-62
2022/08/09 10:20:26;;;;;;;3.50;3.17;;;24.50;99.90;;;-141.84;35.78;22385.63;5026146;28;20230;-63
2022/08/09 10:23:17;;;;;;;4.20;2.90;;;24.50;99.90;;;-141.84;35.59;22452.72;5011530;28;20603;-61
2022/08/09 10:25:49;;;;;;;4.50;3.10;;;24.60;99.90;;;-141.84;34.90;22420.19;5011863;28;20257;-61
2022/08/09 10:28:40;;;;;;;4.63;2.70;;;24.70;99.90;;;-141.84;34.76;22432.41;5011027;28;20234;-61
2022/08/09 10:31:10;;;;;;;4.30;3.10;;;24.80;99.90;;;-141.84;34.37;22473.06;5012042;28;20330;-66
2022/08/09 10:33:59;;;;;;;4.15;2.97;;;24.90;99.90;;;-141.84;34.16;22460.88;5011682;28;20222;-62
2022/08/09 10:36:55;;;;;;;3.58;2.80;;;24.90;99.90;;;-141.84;33.69;22501.53;5011732;28;20227;-62
2022/08/09 10:39:26;;;;;;;3.42;2.70;;;25.00;99.90;;;-141.84;33.34;22493.41;5011672;28;20613;-64
2022/08/09 10:41:57;;;;;;;3.03;2.83;;;25.00;99.90;;;-141.84;33.43;22513.75;5011679;28;20183;-61
2022/08/09 10:44:30;;;;;;;7.05;3.00;;;25.00;99.90;;;-141.84;33.33;22515.78;5011672;28;20619;-62
2022/08/09 10:47:33;;;;;;;2.92;2.72;;;25.10;99.90;;;-141.84;34.15;22519.84;5011161;28;20313;-62
2022/08/09 10:51:05;;;;;;;3.65;2.92;;;25.00;99.90;;;-141.84;33.91;22530.00;5017727;28;20279;-63